Time;durP1;ratioP1;P1;durP2;ratioP2;P2;SDS_P1;SDS_P2;PMS_P1;PMS_P2;Temp;Humidity;BMP_temperature;BMP_pressure;BME280_temperature;BME280_humidity;BME280_pressure;Samples;Min_cycle;Max_cycle;Signal;HPM_P1;HPM_P2
2023/08/27 00:01:29;;;;;;;3.15;1.20;;;;;;;16.13;100.00;100763.78;6302645;28;20049;-67
2023/08/27 00:04:30;;;;;;;1.45;1.30;;;;;;;16.16;100.00;100771.47;6302382;28;20047;-67
2023/08/27 00:07:32;;;;;;;1.45;1.20;;;;;;;16.13;100.00;100751.34;6342580;22;20055;-72
2023/08/27 00:10:35;;;;;;;1.65;1.08;;;;;;;16.10;100.00;100737.47;6327728;28;20051;-72
2023/08/27 00:13:36;;;;;;;1.48;1.15;;;;;;;16.10;100.00;100745.44;6327463;28;20052;-71
2023/08/27 00:16:37;;;;;;;1.50;0.98;;;;;;;15.99;100.00;100740.97;6304778;28;20056;-72
2023/08/27 00:19:39;;;;;;;3.67;1.10;;;;;;;15.90;100.00;100725.75;6302322;28;20467;-73
2023/08/27 00:22:40;;;;;;;2.22;1.30;;;;;;;15.92;100.00;100726.47;6302040;28;20583;-72
2023/08/27 00:25:44;;;;;;;5.80;1.30;;;;;;;15.82;100.00;100738.75;6301781;28;20045;-71
2023/08/27 00:28:46;;;;;;;1.50;1.40;;;;;;;15.80;100.00;100738.84;6301937;28;20052;-72
2023/08/27 00:31:47;;;;;;;1.23;1.00;;;;;;;15.81;100.00;100740.56;6306976;28;20321;-72
2023/08/27 00:34:49;;;;;;;3.00;1.40;;;;;;;15.79;100.00;100746.91;6326521;28;20044;-71
2023/08/27 00:37:50;;;;;;;1.20;1.10;;;;;;;15.76;100.00;100750.66;6326969;28;20048;-71
2023/08/27 00:40:53;;;;;;;1.20;1.10;;;;;;;15.76;100.00;100761.25;6326756;28;20078;-71
2023/08/27 00:43:54;;;;;;;1.55;1.30;;;;;;;15.77;100.00;100764.75;6326674;28;20051;-72
2023/08/27 00:46:56;;;;;;;3.38;1.42;;;;;;;15.79;100.00;100755.69;6325743;28;20048;-71
2023/08/27 00:49:58;;;;;;;3.47;1.48;;;;;;;15.82;100.00;100744.03;6326870;28;20059;-71
2023/08/27 00:53:00;;;;;;;2.38;1.55;;;;;;;15.86;100.00;100730.44;6326543;28;20047;-71
2023/08/27 00:56:03;;;;;;;1.88;1.20;;;;;;;15.84;100.00;100721.75;6325926;28;20050;-71
2023/08/27 00:59:05;;;;;;;2.97;1.30;;;;;;;15.84;100.00;100734.16;6326484;28;20463;-71
2023/08/27 01:02:06;;;;;;;1.88;1.38;;;;;;;15.70;100.00;100741.34;6326329;28;20056;-72
2023/08/27 01:05:08;;;;;;;1.75;1.20;;;;;;;15.75;100.00;100761.34;6325965;28;20048;-71
2023/08/27 01:08:20;;;;;;;2.47;1.38;;;;;;;15.82;100.00;100750.19;6326143;28;20436;-71
2023/08/27 01:11:35;;;;;;;1.48;1.30;;;;;;;15.84;100.00;100744.75;6326279;28;20048;-72
2023/08/27 01:14:38;;;;;;;1.33;0.93;;;;;;;15.89;100.00;100743.44;6325779;28;20561;-71
2023/08/27 01:17:40;;;;;;;3.13;1.10;;;;;;;15.85;100.00;100736.72;6326112;28;20048;-71
2023/08/27 01:20:41;;;;;;;1.70;1.40;;;;;;;15.83;100.00;100724.53;6325861;28;20059;-71
2023/08/27 01:23:45;;;;;;;2.45;1.10;;;;;;;15.85;100.00;100706.69;6325910;28;20050;-71
2023/08/27 01:26:52;;;;;;;1.42;1.05;;;;;;;15.85;100.00;100680.19;6325251;28;20048;-71
2023/08/27 01:30:03;;;;;;;3.47;1.40;;;;;;;15.84;100.00;100668.75;6325807;28;20448;-71
2023/08/27 01:33:09;;;;;;;4.63;1.10;;;;;;;15.75;100.00;100665.97;6325744;28;20428;-71
2023/08/27 01:36:12;;;;;;;2.17;1.38;;;;;;;15.67;100.00;100659.47;6325535;28;20097;-72
2023/08/27 01:39:15;;;;;;;1.45;1.00;;;;;;;15.67;100.00;100655.97;6325551;28;20044;-71
2023/08/27 01:42:16;;;;;;;2.60;1.30;;;;;;;15.65;100.00;100642.81;6325419;28;20056;-71
2023/08/27 01:45:18;;;;;;;3.85;1.40;;;;;;;15.66;100.00;100652.44;6325052;28;20052;-71
2023/08/27 01:48:19;;;;;;;1.20;0.93;;;;;;;15.66;100.00;100664.84;6325643;28;20078;-71
2023/08/27 01:51:21;;;;;;;1.50;1.40;;;;;;;15.55;100.00;100668.28;6325313;28;20056;-71
2023/08/27 01:54:23;;;;;;;1.38;1.20;;;;;;;15.51;100.00;100677.41;6325185;28;20055;-71
2023/08/27 01:57:25;;;;;;;3.00;1.65;;;;;;;15.51;100.00;100661.53;6325170;28;20059;-71
2023/08/27 02:00:26;;;;;;;2.55;1.35;;;;;;;15.52;100.00;100665.03;6325203;28;20058;-71
2023/08/27 02:03:28;;;;;;;1.98;1.33;;;;;;;15.48;100.00;100667.88;6324484;28;20052;-71
2023/08/27 02:06:29;;;;;;;1.50;1.20;;;;;;;15.45;100.00;100672.59;6324552;28;20486;-71
2023/08/27 02:09:32;;;;;;;6.72;1.38;;;;;;;15.39;100.00;100679.16;6325114;28;20428;-71
2023/08/27 02:12:33;;;;;;;1.55;1.25;;;;;;;15.35;100.00;100679.50;6324991;28;20048;-74
2023/08/27 02:15:35;;;;;;;1.85;1.65;;;;;;;15.33;100.00;100674.34;6324648;28;20447;-71
2023/08/27 02:18:36;;;;;;;1.17;1.08;;;;;;;15.32;100.00;100656.78;6324949;28;20360;-71
2023/08/27 02:21:38;;;;;;;1.63;1.20;;;;;;;15.30;100.00;100656.03;6324928;28;20048;-71
2023/08/27 02:24:40;;;;;;;4.03;1.52;;;;;;;15.20;100.00;100652.38;6324777;28;20048;-71
2023/08/27 02:27:42;;;;;;;2.30;1.40;;;;;;;15.16;100.00;100653.56;6324942;28;20059;-71
2023/08/27 02:30:50;;;;;;;2.80;1.50;;;;;;;15.17;100.00;100663.19;6324852;28;20061;-71
2023/08/27 02:33:52;;;;;;;4.40;1.37;;;;;;;15.10;100.00;100676.03;6324199;28;20047;-71
2023/08/27 02:36:53;;;;;;;1.85;1.40;;;;;;;15.13;100.00;100690.88;6324227;28;20047;-71
2023/08/27 02:39:56;;;;;;;1.85;1.15;;;;;;;15.15;100.00;100678.34;6324894;28;20059;-71
2023/08/27 02:42:57;;;;;;;3.53;1.70;;;;;;;15.13;100.00;100673.19;6324716;28;20052;-72
2023/08/27 02:45:59;;;;;;;1.48;1.38;;;;;;;15.07;100.00;100654.25;6324427;28;20051;-71
2023/08/27 02:49:00;;;;;;;1.33;1.23;;;;;;;15.09;100.00;100662.94;6324613;28;20424;-72
2023/08/27 02:52:01;;;;;;;2.67;1.73;;;;;;;15.15;100.00;100642.13;6324719;28;20074;-71
2023/08/27 02:55:05;;;;;;;4.32;1.67;;;;;;;15.09;100.00;100639.94;6313311;28;20047;-71
2023/08/27 02:58:06;;;;;;;2.20;1.60;;;;;;;15.08;100.00;100635.63;6312908;28;20048;-71
2023/08/27 03:01:07;;;;;;;4.22;1.95;;;;;;;15.12;100.00;100633.56;6310181;28;20044;-71
2023/08/27 03:04:09;;;;;;;2.15;1.60;;;;;;;15.10;100.00;100617.81;6310418;28;20045;-71
2023/08/27 03:07:10;;;;;;;3.20;1.70;;;;;;;15.01;100.00;100623.78;6312106;28;20057;-71
2023/08/27 03:10:14;;;;;;;1.90;1.55;;;;;;;14.95;100.00;100619.81;6313943;28;20044;-71
2023/08/27 03:13:15;;;;;;;3.33;1.77;;;;;;;14.95;100.00;100626.91;6307881;28;20428;-71
2023/08/27 03:16:17;;;;;;;2.58;1.90;;;;;;;14.95;100.00;100638.31;6328435;28;20055;-71
2023/08/27 03:19:18;;;;;;;1.92;1.73;;;;;;;14.95;100.00;100624.25;6329068;28;20040;-71
2023/08/27 03:22:20;;;;;;;3.60;1.60;;;;;;;14.95;100.00;100633.03;6328865;28;20055;-71
2023/08/27 03:25:22;;;;;;;5.13;2.60;;;;;;;14.98;100.00;100639.88;6328509;28;20044;-71
2023/08/27 03:28:24;;;;;;;2.58;2.08;;;;;;;14.98;100.00;100624.84;6328742;28;20052;-71
2023/08/27 03:31:25;;;;;;;2.78;1.58;;;;;;;14.96;100.00;100612.69;6328893;28;20048;-71
2023/08/27 03:34:27;;;;;;;6.78;2.15;;;;;;;14.94;100.00;100614.59;6328391;28;20055;-71
2023/08/27 03:37:28;;;;;;;2.80;1.92;;;;;;;14.97;100.00;100617.88;6328302;28;20048;-72
2023/08/27 03:40:31;;;;;;;5.10;1.85;;;;;;;14.92;100.00;100611.25;6328480;28;20059;-71
2023/08/27 03:43:32;;;;;;;1.85;1.65;;;;;;;14.87;100.00;100635.38;6328242;28;20053;-71
2023/08/27 03:46:33;;;;;;;4.03;2.10;;;;;;;14.79;100.00;100631.59;6328024;28;20051;-71
2023/08/27 03:49:35;;;;;;;2.35;1.77;;;;;;;14.76;100.00;100638.00;6328093;28;20360;-71
2023/08/27 03:52:36;;;;;;;3.00;2.13;;;;;;;14.71;100.00;100648.03;6328264;28;20169;-71
2023/08/27 03:55:40;;;;;;;3.55;1.85;;;;;;;14.69;100.00;100645.50;6327683;28;20044;-71
2023/08/27 03:58:41;;;;;;;2.00;1.52;;;;;;;14.69;100.00;100644.66;6328200;28;20048;-71
2023/08/27 04:01:43;;;;;;;4.65;1.98;;;;;;;14.71;100.00;100640.94;6327883;28;20059;-71
2023/08/27 04:04:44;;;;;;;2.15;1.67;;;;;;;14.73;100.00;100629.41;6327710;28;20068;-71
2023/08/27 04:07:45;;;;;;;3.25;2.13;;;;;;;14.75;100.00;100632.78;6327446;28;20097;-72
2023/08/27 04:10:52;;;;;;;2.40;1.98;;;;;;;14.67;100.00;100633.34;6327653;28;20059;-72
2023/08/27 04:13:54;;;;;;;4.25;2.72;;;;;;;14.60;100.00;100632.94;6327497;28;20052;-71
2023/08/27 04:16:55;;;;;;;3.95;2.13;;;;;;;14.57;100.00;100638.44;6327217;28;20048;-71
2023/08/27 04:19:56;;;;;;;3.13;2.40;;;;;;;14.58;100.00;100648.09;6326556;28;20432;-71
2023/08/27 04:22:58;;;;;;;2.67;2.10;;;;;;;14.63;100.00;100656.53;6327349;28;20051;-70
2023/08/27 04:26:03;;;;;;;2.45;2.25;;;;;;;14.67;100.00;100649.19;6327116;28;20040;-71
2023/08/27 04:29:04;;;;;;;5.85;2.35;;;;;;;14.67;100.00;100643.91;6327196;28;20431;-71
2023/08/27 04:32:06;;;;;;;2.88;2.03;;;;;;;14.67;100.00;100643.91;6326875;28;20043;-71
2023/08/27 04:35:08;;;;;;;3.00;2.40;;;;;;;14.65;100.00;100644.03;6326438;28;20469;-71
2023/08/27 04:38:09;;;;;;;3.85;2.33;;;;;;;14.65;100.00;100659.91;6327032;28;20446;-71
2023/08/27 04:41:12;;;;;;;3.47;2.25;;;;;;;14.65;100.00;100659.91;6326898;28;20067;-71
2023/08/27 04:44:13;;;;;;;2.67;2.10;;;;;;;14.58;100.00;100653.38;6326594;28;20529;-71
2023/08/27 04:47:16;;;;;;;2.95;2.20;;;;;;;14.56;100.00;100657.91;6326414;28;20074;-71
2023/08/27 04:50:17;;;;;;;3.28;2.20;;;;;;;14.56;100.00;100651.78;6326962;28;20059;-71
2023/08/27 04:53:19;;;;;;;2.97;2.20;;;;;;;14.56;100.00;100649.13;6326774;28;20044;-71
2023/08/27 04:56:22;;;;;;;3.00;2.30;;;;;;;14.57;100.00;100640.25;6326072;28;20059;-71
2023/08/27 04:59:24;;;;;;;2.78;2.47;;;;;;;14.56;100.00;100631.47;6326617;28;20048;-71
2023/08/27 05:02:26;;;;;;;3.03;2.38;;;;;;;14.56;100.00;100641.22;6326184;28;20055;-71
2023/08/27 05:05:27;;;;;;;3.30;2.28;;;;;;;14.60;100.00;100661.19;6325897;28;20055;-71
2023/08/27 05:08:28;;;;;;;2.90;2.30;;;;;;;14.65;100.00;100662.53;6326295;28;20056;-71
2023/08/27 05:11:31;;;;;;;6.15;2.47;;;;;;;14.71;100.00;100655.97;6326231;28;20447;-71
2023/08/27 05:14:32;;;;;;;2.92;2.15;;;;;;;14.77;100.00;100636.19;6325912;28;20048;-71
2023/08/27 05:17:34;;;;;;;2.72;2.10;;;;;;;14.75;100.00;100633.63;6326266;28;20048;-71
2023/08/27 05:20:36;;;;;;;2.35;2.15;;;;;;;14.75;100.00;100628.34;6326013;28;20052;-71
2023/08/27 05:23:38;;;;;;;5.88;2.60;;;;;;;14.71;100.00;100635.63;6325573;28;20048;-71
2023/08/27 05:26:41;;;;;;;5.28;2.40;;;;;;;14.74;100.00;100645.16;6325549;28;20048;-71
2023/08/27 05:29:42;;;;;;;5.45;2.63;;;;;;;14.78;100.00;100640.50;6325821;28;20554;-71
2023/08/27 05:32:44;;;;;;;3.45;2.50;;;;;;;14.81;100.00;100622.63;6325632;28;20040;-71
2023/08/27 05:35:45;;;;;;;5.47;2.78;;;;;;;14.76;100.00;100611.53;6325322;28;20044;-71
2023/08/27 05:38:46;;;;;;;3.83;2.25;;;;;;;14.68;100.00;100609.44;6325818;28;20055;-71
2023/08/27 05:41:49;;;;;;;3.35;2.20;;;;;;;14.71;100.00;100618.94;6325550;28;20052;-71
2023/08/27 05:44:51;;;;;;;3.67;2.47;;;;;;;14.70;100.00;100611.97;6325411;28;20059;-71
2023/08/27 05:47:52;;;;;;;3.92;2.70;;;;;;;14.71;100.00;100598.59;6325278;28;20044;-71
2023/08/27 05:50:53;;;;;;;3.25;2.42;;;;;;;14.71;100.00;100603.06;6325522;28;20475;-71
2023/08/27 05:53:55;;;;;;;3.22;2.33;;;;;;;14.74;100.00;100609.94;6325404;28;20567;-71
2023/08/27 05:56:58;;;;;;;2.90;2.20;;;;;;;14.74;100.00;100605.50;6321678;28;20053;-71
2023/08/27 05:59:59;;;;;;;2.97;2.25;;;;;;;14.83;100.00;100596.88;6309440;28;20114;-71
2023/08/27 06:03:01;;;;;;;6.05;2.38;;;;;;;14.88;100.00;100588.59;6313377;28;20048;-71
2023/08/27 06:06:02;;;;;;;3.65;2.45;;;;;;;14.97;100.00;100591.41;6324844;22;20354;-71
2023/08/27 06:09:04;;;;;;;2.17;1.67;;;;;;;15.04;100.00;100588.31;6274916;28;20053;-70
2023/08/27 06:12:07;;;;;;;3.92;2.30;;;;;;;15.02;100.00;100596.34;6274861;28;20574;-70
2023/08/27 06:15:09;;;;;;;2.50;1.90;;;;;;;15.08;100.00;100587.09;6274916;28;20060;-71
2023/08/27 06:18:11;;;;;;;2.47;1.60;;;;;;;15.13;100.00;100596.41;6274897;28;20056;-70
2023/08/27 06:21:12;;;;;;;2.13;1.70;;;;;;;15.16;100.00;100603.28;6274833;28;20045;-70
2023/08/27 06:24:13;;;;;;;2.35;1.73;;;;;;;15.18;100.00;100604.84;6274409;28;20056;-71
2023/08/27 06:27:16;;;;;;;6.95;2.38;;;;;;;15.08;100.00;100598.56;6273978;28;20049;-71
2023/08/27 06:30:17;;;;;;;2.42;2.00;;;;;;;15.03;100.00;100595.41;6274517;28;20056;-70
2023/08/27 06:33:19;;;;;;;3.05;1.73;;;;;;;14.98;100.00;100593.09;6273709;28;20055;-70
2023/08/27 06:36:20;;;;;;;4.18;1.73;;;;;;;15.09;100.00;100592.31;6274116;28;20056;-70
2023/08/27 06:39:22;;;;;;;2.25;1.77;;;;;;;15.15;100.00;100581.25;6274224;28;20049;-70
2023/08/27 06:42:25;;;;;;;2.60;1.77;;;;;;;15.23;100.00;100594.75;6274424;28;20151;-70
2023/08/27 06:45:27;;;;;;;2.83;1.75;;;;;;;15.28;100.00;100594.41;6277914;28;20063;-70
2023/08/27 06:48:29;;;;;;;2.72;1.85;;;;;;;15.31;100.00;100596.00;6279104;28;20468;-70
2023/08/27 06:51:30;;;;;;;4.05;1.55;;;;;;;15.38;100.00;100589.25;6278831;28;20357;-70
2023/08/27 06:54:32;;;;;;;2.85;2.00;;;;;;;15.47;100.00;100599.16;6273629;28;20044;-68
2023/08/27 06:57:34;;;;;;;3.70;1.80;;;;;;;15.57;100.00;100602.78;6279170;28;20045;-70
2023/08/27 07:00:39;;;;;;;3.22;2.08;;;;;;;15.61;100.00;100596.28;6278536;28;20041;-70
2023/08/27 07:03:41;;;;;;;2.22;1.65;;;;;;;15.66;100.00;100596.81;6278654;28;20440;-70
2023/08/27 07:06:42;;;;;;;1.83;1.52;;;;;;;15.74;100.00;100593.56;6278123;28;20561;-68
2023/08/27 07:09:43;;;;;;;2.33;1.90;;;;;;;15.80;100.00;100587.78;6278629;28;20049;-70
2023/08/27 07:12:46;;;;;;;2.15;1.40;;;;;;;15.90;100.00;100596.75;6275704;28;20059;-70
2023/08/27 07:15:48;;;;;;;1.27;1.17;;;;;;;15.97;100.00;100589.13;6278200;28;20052;-69
2023/08/27 07:18:49;;;;;;;5.32;1.58;;;;;;;16.02;100.00;100594.91;6278317;28;20049;-71
2023/08/27 07:21:50;;;;;;;1.73;1.42;;;;;;;16.08;100.00;100613.00;6278487;28;20056;-69
2023/08/27 07:24:52;;;;;;;3.75;1.73;;;;;;;16.07;100.00;100611.28;6277809;28;20456;-70
2023/08/27 07:27:54;;;;;;;2.70;1.67;;;;;;;16.13;100.00;100602.03;6278141;28;20048;-70
2023/08/27 07:30:56;;;;;;;1.20;1.02;;;;;;;16.15;100.00;100605.41;6277992;28;20072;-70
2023/08/27 07:33:57;;;;;;;2.13;1.50;;;;;;;16.17;100.00;100606.16;6278090;28;20044;-69
2023/08/27 07:36:59;;;;;;;2.08;1.50;;;;;;;16.21;100.00;100599.59;6277841;28;20045;-67
2023/08/27 07:40:00;;;;;;;2.38;1.30;;;;;;;16.22;100.00;100614.56;6277873;28;20349;-67
2023/08/27 07:43:03;;;;;;;2.72;1.42;;;;;;;16.25;100.00;100630.22;6277930;28;20045;-68
2023/08/27 07:46:05;;;;;;;1.75;1.38;;;;;;;16.26;100.00;100628.41;6277447;28;20060;-68
2023/08/27 07:49:06;;;;;;;1.58;1.30;;;;;;;16.31;100.00;100610.34;6277483;28;20056;-68
2023/08/27 07:52:08;;;;;;;1.50;1.10;;;;;;;16.32;100.00;100604.06;6274374;28;20049;-67
2023/08/27 07:55:09;;;;;;;1.77;1.45;;;;;;;16.34;100.00;100605.63;6277618;28;20166;-67
2023/08/27 07:58:12;;;;;;;3.47;1.92;;;;;;;16.34;100.00;100595.00;6277842;28;20041;-68
2023/08/27 08:01:13;;;;;;;1.45;1.30;;;;;;;16.44;100.00;100611.03;6275275;28;20065;-67
2023/08/27 08:04:15;;;;;;;3.03;1.50;;;;;;;16.53;100.00;100602.34;6255982;28;20049;-67
2023/08/27 08:07:16;;;;;;;5.95;1.20;;;;;;;16.59;100.00;100604.50;6277268;28;20052;-68
2023/08/27 08:10:17;;;;;;;2.10;1.33;;;;;;;16.72;100.00;100597.28;6273526;28;20060;-67
2023/08/27 08:13:20;;;;;;;1.70;1.15;;;;;;;16.79;100.00;100597.59;6277594;28;20056;-68
2023/08/27 08:16:23;;;;;;;1.40;1.20;;;;;;;16.88;100.00;100585.41;6277254;28;20045;-68
2023/08/27 08:19:24;;;;;;;5.22;1.20;;;;;;;16.90;100.00;100584.31;6277262;28;20184;-68
2023/08/27 08:22:26;;;;;;;3.20;1.35;;;;;;;16.91;100.00;100582.50;6277631;28;20460;-68
2023/08/27 08:25:28;;;;;;;2.10;1.30;;;;;;;16.92;100.00;100577.06;6276774;28;20353;-67
2023/08/27 08:28:31;;;;;;;1.77;1.30;;;;;;;16.95;100.00;100576.81;6277370;28;20052;-67
2023/08/27 08:31:32;;;;;;;2.17;1.65;;;;;;;16.99;100.00;100580.06;6277200;28;20053;-67
2023/08/27 08:34:34;;;;;;;1.35;1.23;;;;;;;17.01;100.00;100579.91;6276419;28;20053;-67
2023/08/27 08:37:35;;;;;;;5.18;1.38;;;;;;;17.11;100.00;100578.19;6276913;28;20052;-68
2023/08/27 08:40:44;;;;;;;2.00;1.10;;;;;;;17.18;100.00;100579.38;6276914;28;20049;-67
2023/08/27 08:43:52;;;;;;;3.15;1.25;;;;;;;17.17;100.00;100577.69;6276954;28;20059;-68
2023/08/27 08:46:54;;;;;;;9.53;1.20;;;;;;;17.22;100.00;100581.63;6276709;28;20045;-67
2023/08/27 08:49:55;;;;;;;3.38;1.50;;;;;;;17.34;100.00;100594.84;6276754;28;20052;-67
2023/08/27 08:53:00;;;;;;;2.70;1.70;;;;;;;17.46;100.00;100607.09;6276603;28;20051;-67
2023/08/27 08:56:07;;;;;;;3.65;1.80;;;;;;;17.59;100.00;100604.25;6276211;28;20045;-67
2023/08/27 08:59:10;;;;;;;1.85;1.25;;;;;;;17.69;100.00;100603.31;6276427;28;20049;-67
2023/08/27 09:02:12;;;;;;;1.80;1.35;;;;;;;17.77;100.00;100591.25;6276404;28;20076;-66
2023/08/27 09:05:16;;;;;;;2.05;1.45;;;;;;;17.79;100.00;100595.44;6276064;28;20076;-67
2023/08/27 09:08:19;;;;;;;2.10;1.40;;;;;;;17.85;100.00;100592.25;6275627;28;20452;-66
2023/08/27 09:11:20;;;;;;;1.35;1.25;;;;;;;17.93;100.00;100615.50;6276185;28;20053;-66
2023/08/27 09:14:24;;;;;;;2.17;1.30;;;;;;;17.96;100.00;100604.63;6273116;28;20052;-66
2023/08/27 09:17:27;;;;;;;3.28;1.42;;;;;;;18.03;100.00;100608.41;6275931;28;20045;-67
2023/08/27 09:20:28;;;;;;;1.85;1.27;;;;;;;18.09;100.00;100609.72;6276212;28;20057;-67
2023/08/27 09:23:32;;;;;;;3.13;1.38;;;;;;;18.12;100.00;100606.78;6268178;28;20049;-66
2023/08/27 09:26:33;;;;;;;4.30;2.20;;;;;;;18.12;100.00;100602.31;6261427;28;20053;-67
2023/08/27 09:29:36;;;;;;;1.95;1.13;;;;;;;18.11;100.00;100600.63;6274634;28;20429;-68
2023/08/27 09:32:38;;;;;;;2.25;1.10;;;;;;;18.12;100.00;100604.97;6274604;28;20045;-70
2023/08/27 09:35:40;;;;;;;3.78;1.35;;;;;;;18.13;100.00;100598.69;6275301;28;20048;-67
2023/08/27 09:38:44;;;;;;;1.50;0.90;;;;;;;18.15;100.00;100606.50;6275376;28;20179;-68
2023/08/27 09:41:47;;;;;;;4.75;1.45;;;;;;;18.18;100.00;100615.06;6275684;28;20075;-68
2023/08/27 09:44:51;;;;;;;2.47;1.40;;;;;;;18.17;100.00;100609.91;6275095;28;20118;-68
2023/08/27 09:47:57;;;;;;;1.75;1.20;;;;;;;18.18;100.00;100617.75;6268213;28;20128;-68
2023/08/27 09:51:06;;;;;;;4.60;1.20;;;;;;;18.15;100.00;100614.50;6272027;28;20052;-67
2023/08/27 09:54:15;;;;;;;1.63;1.17;;;;;;;18.13;100.00;100611.97;6275335;28;20063;-68
2023/08/27 09:57:18;;;;;;;3.97;1.20;;;;;;;18.10;100.00;100614.06;6275017;28;20049;-68
2023/08/27 10:00:23;;;;;;;8.48;1.35;;;;;;;18.03;100.00;100629.69;6274775;28;20053;-67
2023/08/27 10:03:24;;;;;;;2.75;2.05;;;;;;;17.78;100.00;100643.41;6273984;28;20059;-66
2023/08/27 10:06:26;;;;;;;3.55;2.13;;;;;;;17.24;100.00;100632.78;6281273;28;20060;-68
2023/08/27 10:09:34;;;;;;;6.05;2.28;;;;;;;16.64;100.00;100641.28;6275035;28;20437;-73
2023/08/27 10:12:36;;;;;;;5.60;3.10;;;;;;;16.53;100.00;100638.63;6274528;28;20076;-73
2023/08/27 10:15:39;;;;;;;3.53;2.13;;;;;;;16.34;100.00;100615.38;6274041;28;20136;-73
2023/08/27 10:18:41;;;;;;;2.40;1.90;;;;;;;16.23;100.00;100622.41;6276542;28;20143;-72
2023/08/27 10:21:42;;;;;;;5.32;2.13;;;;;;;16.23;100.00;100614.44;6280270;28;20318;-73
2023/08/27 10:24:47;;;;;;;2.38;2.00;;;;;;;16.27;100.00;100595.66;6279679;28;20052;-72
2023/08/27 10:27:50;;;;;;;7.97;2.38;;;;;;;16.28;100.00;100584.06;6280104;28;20049;-72
2023/08/27 10:30:55;;;;;;;4.13;2.10;;;;;;;16.23;100.00;100587.09;6279958;28;20091;-72
2023/08/27 10:33:57;;;;;;;2.25;1.90;;;;;;;16.28;100.00;100584.06;6276639;28;20045;-72
2023/08/27 10:37:03;;;;;;;4.13;2.28;;;;;;;16.30;100.00;100582.13;6275252;28;20049;-72
2023/08/27 10:40:08;;;;;;;3.25;1.98;;;;;;;16.30;100.00;100584.78;6280047;28;20053;-72
2023/08/27 10:43:17;;;;;;;4.50;1.70;;;;;;;16.20;100.00;100568.75;6279357;28;20102;-72
2023/08/27 10:46:21;;;;;;;4.28;1.75;;;;;;;16.22;100.00;100567.69;6277244;28;20056;-71
2023/08/27 10:49:23;;;;;;;3.85;1.83;;;;;;;16.22;100.00;100554.44;6279351;28;20134;-71
2023/08/27 10:52:27;;;;;;;2.30;1.73;;;;;;;16.35;100.00;100558.72;6279483;28;20334;-72
2023/08/27 10:55:35;;;;;;;2.33;2.13;;;;;;;16.29;100.00;100551.28;6278929;28;20059;-72
2023/08/27 10:58:42;;;;;;;38.28;19.63;;;;;;;16.37;100.00;100556.81;6272384;28;20057;-71
2023/08/27 11:02:07;;;;;;;6.32;2.65;;;;;;;16.23;100.00;100555.28;6275823;28;20361;-71
2023/08/27 11:05:10;;;;;;;4.78;3.58;;;;;;;16.29;100.00;100561.88;6279192;28;20142;-71
2023/08/27 11:08:14;;;;;;;8.48;4.00;;;;;;;16.33;100.00;100547.41;6278956;28;20045;-71
2023/08/27 11:11:16;;;;;;;5.20;3.92;;;;;;;16.36;100.00;100552.47;6278006;28;20095;-71
2023/08/27 11:14:20;;;;;;;7.75;5.18;;;;;;;16.38;100.00;100556.69;6277176;28;20044;-71
2023/08/27 11:17:28;;;;;;;7.10;4.93;;;;;;;16.32;100.00;100553.69;6279004;28;20106;-71
2023/08/27 11:20:30;;;;;;;7.33;5.33;;;;;;;16.38;100.00;100556.69;6278947;28;20055;-73
2023/08/27 11:23:32;;;;;;;9.18;6.75;;;;;;;16.37;100.00;100555.00;6278864;28;20341;-71
2023/08/27 11:26:34;;;;;;;10.27;6.60;;;;;;;16.39;100.00;100563.66;6282114;28;20479;-71
2023/08/27 11:29:39;;;;;;;11.00;6.88;;;;;;;16.45;100.00;100551.72;6278131;28;20045;-71
2023/08/27 11:32:44;;;;;;;10.05;6.35;;;;;;;16.53;100.00;100546.63;6278538;28;20449;-71
2023/08/27 11:35:45;;;;;;;9.23;5.93;;;;;;;16.56;100.00;100549.03;6278123;28;20584;-71
2023/08/27 11:38:47;;;;;;;8.00;5.88;;;;;;;16.57;100.00;100542.75;6278221;28;20349;-71
2023/08/27 11:41:48;;;;;;;7.07;4.97;;;;;;;16.64;100.00;100543.13;6278408;28;20137;-71
2023/08/27 11:44:51;;;;;;;8.05;5.80;;;;;;;16.68;100.00;100542.72;6278343;28;20056;-71
2023/08/27 11:47:53;;;;;;;8.02;5.65;;;;;;;16.83;100.00;100545.97;6278184;28;20041;-71
2023/08/27 11:50:55;;;;;;;8.40;5.78;;;;;;;16.80;100.00;100551.50;6278651;28;20053;-70
2023/08/27 11:53:57;;;;;;;10.10;6.55;;;;;;;16.86;100.00;100559.00;6278218;28;20049;-71
2023/08/27 11:56:59;;;;;;;9.20;6.65;;;;;;;16.83;100.00;100564.53;6277964;28;20048;-71
2023/08/27 12:00:10;;;;;;;8.02;6.32;;;;;;;16.83;100.00;100569.00;6278110;28;20059;-71
2023/08/27 12:03:14;;;;;;;7.57;5.57;;;;;;;16.84;100.00;100570.69;6278251;28;20056;-71
2023/08/27 12:06:17;;;;;;;10.60;5.90;;;;;;;16.83;100.00;100555.75;6277525;28;20111;-71
2023/08/27 12:09:23;;;;;;;10.27;5.75;;;;;;;16.86;100.00;100556.34;6277985;28;20048;-71
2023/08/27 12:12:28;;;;;;;9.20;6.25;;;;;;;16.88;100.00;100558.84;6277733;28;20053;-71
2023/08/27 12:15:30;;;;;;;10.20;6.60;;;;;;;16.90;100.00;100551.63;6277573;28;20056;-71
2023/08/27 12:18:36;;;;;;;10.48;6.55;;;;;;;16.86;100.00;100550.19;6277611;28;20057;-71
2023/08/27 12:21:48;;;;;;;9.98;6.22;;;;;;;16.87;100.00;100558.00;6277560;28;20068;-71
2023/08/27 12:24:49;;;;;;;8.82;6.18;;;;;;;16.88;100.00;100561.50;6277228;28;20045;-71
2023/08/27 12:27:50;;;;;;;6.90;5.32;;;;;;;16.89;100.00;100561.38;6277348;28;20052;-71
2023/08/27 12:30:53;;;;;;;13.15;7.32;;;;;;;16.93;100.00;100559.31;6273543;28;20056;-71
2023/08/27 12:33:59;;;;;;;6.93;4.90;;;;;;;16.91;100.00;100562.09;6275382;28;20052;-70
2023/08/27 12:37:01;;;;;;;8.52;5.28;;;;;;;16.90;100.00;100557.78;6272210;28;20075;-70
2023/08/27 12:40:03;;;;;;;8.55;5.10;;;;;;;17.02;100.00;100563.00;6274915;28;20127;-70
2023/08/27 12:43:04;;;;;;;8.13;5.30;;;;;;;17.04;100.00;100556.63;6272285;28;20049;-69
2023/08/27 12:46:06;;;;;;;6.20;4.85;;;;;;;17.14;100.00;100564.66;6272433;28;20445;-70
2023/08/27 12:49:09;;;;;;;6.70;4.88;;;;;;;17.20;100.00;100562.31;6270605;28;20041;-70
2023/08/27 12:52:10;;;;;;;8.10;5.15;;;;;;;17.30;100.00;100557.06;6271245;28;20467;-70
2023/08/27 12:55:12;;;;;;;13.15;5.80;;;;;;;17.53;100.00;100554.25;6274653;28;20044;-70
2023/08/27 12:58:13;;;;;;;10.80;5.88;;;;;;;17.68;100.00;100548.50;6275173;28;20061;-71
2023/08/27 13:01:15;;;;;;;10.70;5.28;;;;;;;17.88;100.00;100535.31;6274766;28;20048;-69
2023/08/27 13:04:18;;;;;;;9.23;6.35;;;;;;;18.01;100.00;100527.94;6273092;28;20053;-69
2023/08/27 13:07:19;;;;;;;11.07;6.20;;;;;;;17.92;100.00;100540.22;6275747;28;20049;-69
2023/08/27 13:10:20;;;;;;;5.47;4.15;;;;;;;17.98;100.00;100526.38;6276291;28;20052;-69
2023/08/27 13:13:22;;;;;;;8.02;5.20;;;;;;;18.02;100.00;100532.28;6276211;28;20045;-68
2023/08/27 13:16:23;;;;;;;7.10;4.88;;;;;;;18.07;100.00;100522.06;6274245;28;20071;-69
2023/08/27 13:19:26;;;;;;;8.77;4.50;;;;;;;18.34;100.00;100517.94;6273839;28;20048;-69
2023/08/27 13:22:27;;;;;;;6.68;4.18;;;;;;;18.52;100.00;100518.94;6274311;28;20419;-69
2023/08/27 13:25:29;;;;;;;7.78;4.75;;;;;;;18.50;100.00;100523.56;6275133;28;20441;-68
2023/08/27 13:28:30;;;;;;;6.78;4.57;;;;;;;18.50;100.00;100529.75;6275296;28;20045;-69
2023/08/27 13:31:32;;;;;;;7.32;4.00;;;;;;;18.47;100.00;100523.84;6273099;28;20049;-69
2023/08/27 13:34:35;;;;;;;6.28;3.90;;;;;;;18.25;100.00;100522.25;6273141;28;20041;-69
2023/08/27 13:37:36;;;;;;;4.70;3.45;;;;;;;18.37;100.00;100520.34;6267993;28;20064;-68
2023/08/27 13:40:38;;;;;;;4.47;3.33;;;;;;;18.41;100.00;100527.91;6273403;28;20056;-68
2023/08/27 13:43:39;;;;;;;5.40;3.97;;;;;;;18.43;100.00;100512.63;6275501;28;20045;-69
2023/08/27 13:46:41;;;;;;;5.25;3.30;;;;;;;18.28;100.00;100510.53;6266112;28;20056;-69
2023/08/27 13:49:44;;;;;;;3.90;3.17;;;;;;;18.25;100.00;100511.63;6268368;28;20064;-69
2023/08/27 13:52:45;;;;;;;6.80;3.80;;;;;;;18.36;100.00;100497.38;6274236;28;20055;-69
2023/08/27 13:55:47;;;;;;;4.47;3.58;;;;;;;18.49;100.00;100490.81;6275068;28;20049;-68
2023/08/27 13:58:48;;;;;;;4.13;3.42;;;;;;;18.75;100.00;100491.09;6267661;28;20044;-69